Time;durP1;ratioP1;P1;durP2;ratioP2;P2;SDS_P1;SDS_P2;PMS_P1;PMS_P2;Temp;Humidity;BMP_temperature;BMP_pressure;BME280_temperature;BME280_humidity;BME280_pressure;Samples;Min_cycle;Max_cycle;Signal;HPM_P1;HPM_P2
2023/06/28 00:03:58;;;;;;;3.47;1.60;;;;;;;19.48;55.92;99942.34;12213344;19;20007;-81
2023/06/28 00:08:00;;;;;;;3.53;1.90;;;;;;;19.44;56.06;99938.47;12198311;19;20579;-81
2023/06/28 00:12:03;;;;;;;2.30;1.23;;;;;;;19.41;56.30;99941.88;12213097;19;20011;-81
2023/06/28 00:16:05;;;;;;;3.45;1.60;;;;;;;19.39;57.13;99940.53;12210083;19;20398;-82
2023/06/28 00:20:07;;;;;;;3.35;1.27;;;;;;;19.35;57.86;99943.94;12190155;19;20104;-81
2023/06/28 00:24:09;;;;;;;3.50;1.75;;;;;;;19.32;58.04;99940.91;12211245;19;20015;-81
2023/06/28 00:28:11;;;;;;;3.53;1.70;;;;;;;19.26;58.39;99948.56;12211873;19;20073;-81
2023/06/28 00:32:13;;;;;;;2.85;1.85;;;;;;;19.21;58.59;99942.22;12211896;19;20021;-80
2023/06/28 00:36:15;;;;;;;8.40;2.13;;;;;;;19.17;59.16;99936.41;12211679;19;20334;-81
2023/06/28 00:40:17;;;;;;;2.35;1.67;;;;;;;19.12;59.16;99942.06;12211208;19;20017;-81
2023/06/28 00:44:18;;;;;;;13.18;2.75;;;;;;;19.08;59.86;99955.00;12187045;19;20018;-81
2023/06/28 00:48:21;;;;;;;5.25;1.80;;;;;;;19.05;60.41;99945.25;12212052;19;20109;-80
2023/06/28 00:52:26;;;;;;;6.10;1.90;;;;;;;19.00;60.55;99948.13;12215315;19;20013;-81
2023/06/28 00:56:28;;;;;;;5.85;2.03;;;;;;;18.92;61.09;99948.81;12192250;19;20363;-81
2023/06/28 01:00:30;;;;;;;5.47;1.88;;;;;;;18.87;61.89;99949.72;12208131;19;20027;-81
2023/06/28 01:04:33;;;;;;;3.75;2.05;;;;;;;18.83;62.24;99947.84;12208911;19;20003;-81
2023/06/28 01:08:36;;;;;;;5.22;1.83;;;;;;;18.80;61.78;99951.22;12188205;19;20587;-81
2023/06/28 01:12:38;;;;;;;5.30;1.70;;;;;;;18.77;61.56;99954.59;12209068;19;20020;-81
2023/06/28 01:16:39;;;;;;;3.67;2.00;;;;;;;18.74;62.02;99958.00;12210670;19;20077;-81
2023/06/28 01:20:41;;;;;;;5.90;2.08;;;;;;;18.71;62.48;99962.22;12187187;19;20433;-80
2023/06/28 01:24:46;;;;;;;6.05;2.20;;;;;;;18.70;63.39;99966.13;12206120;19;20018;-80
2023/06/28 01:28:48;;;;;;;3.10;1.88;;;;;;;18.67;62.85;99972.31;12188237;19;20006;-80
2023/06/28 01:32:50;;;;;;;3.10;1.90;;;;;;;18.65;63.09;99961.44;12207005;19;20003;-80
2023/06/28 01:36:57;;;;;;;4.97;2.10;;;;;;;18.63;63.01;99954.50;12210813;19;20010;-81
2023/06/28 01:40:59;;;;;;;6.22;2.20;;;;;;;18.62;63.33;99964.00;12200879;19;20670;-81
2023/06/28 01:45:02;;;;;;;6.73;2.00;;;;;;;18.60;63.39;99961.50;12215703;19;20078;-81
2023/06/28 01:49:05;;;;;;;6.13;2.10;;;;;;;18.59;63.62;99964.59;12221209;19;20007;-81
2023/06/28 01:53:07;;;;;;;;;;;;;;;18.54;64.03;99964.69;12199051;19;20000;-81
2023/06/28 01:57:09;;;;;;;4.60;2.05;;;;;;;18.54;63.91;99967.47;12223508;19;19974;-81
2023/06/28 02:01:11;;;;;;;4.65;1.90;;;;;;;18.51;64.10;99962.50;12219551;19;20015;-79
2023/06/28 02:05:13;;;;;;;4.80;1.75;;;;;;;18.49;64.10;99957.19;12195451;19;20007;-81
2023/06/28 02:09:17;;;;;;;3.67;2.10;;;;;;;18.47;64.06;99953.84;12219666;19;20534;-80
2023/06/28 02:13:19;;;;;;;3.22;1.75;;;;;;;18.45;63.84;99954.19;12215838;19;20014;-80
2023/06/28 02:17:20;;;;;;;6.20;1.77;;;;;;;18.45;63.72;99961.72;12198329;19;20354;-80
2023/06/28 02:21:22;;;;;;;5.30;1.98;;;;;;;18.41;63.67;99958.69;12218774;19;20074;-80
2023/06/28 02:25:24;;;;;;;4.72;1.90;;;;;;;18.40;63.91;99962.59;12209747;19;20039;-80
2023/06/28 02:29:26;;;;;;;6.97;2.20;;;;;;;18.39;64.35;99965.72;12195748;19;20035;-80
2023/06/28 02:33:27;;;;;;;4.22;1.98;;;;;;;18.38;64.29;99962.09;12215036;19;20064;-81
2023/06/28 02:37:29;;;;;;;3.92;1.60;;;;;;;18.35;64.54;99967.41;12219452;19;20466;-80
2023/06/28 02:41:31;;;;;;;4.95;1.92;;;;;;;18.31;64.78;99963.56;12195870;19;20116;-80
2023/06/28 02:45:33;;;;;;;3.80;1.57;;;;;;;18.27;64.96;99965.31;12214205;19;20007;-80
2023/06/28 02:49:35;;;;;;;4.07;2.15;;;;;;;18.25;65.05;99965.59;12216040;19;20240;-80
2023/06/28 02:53:37;;;;;;;2.90;1.47;;;;;;;18.22;65.49;99957.81;12194297;19;20010;-80
2023/06/28 02:57:38;;;;;;;5.43;2.10;;;;;;;18.24;65.62;99957.53;12218156;19;19998;-80
2023/06/28 03:01:44;;;;;;;4.25;2.10;;;;;;;18.23;66.14;99967.81;12215341;19;20749;-80
2023/06/28 03:05:47;;;;;;;3.83;1.45;;;;;;;18.26;66.25;99969.19;12197104;19;20014;-80
2023/06/28 03:09:49;;;;;;;2.53;1.60;;;;;;;18.26;66.72;99970.03;12217418;19;20014;-80
2023/06/28 03:13:52;;;;;;;7.78;2.17;;;;;;;18.26;66.42;99966.41;12194129;19;20086;-80
2023/06/28 03:17:55;;;;;;;;;;;;;;;18.24;66.87;99969.50;12215941;19;20002;-80
2023/06/28 03:21:57;;;;;;;5.60;1.88;;;;;;;18.25;66.64;99976.75;12215253;19;19919;-80
2023/06/28 03:25:59;;;;;;;3.70;1.77;;;;;;;18.25;66.32;99975.91;12194817;19;20858;-80
2023/06/28 03:30:00;;;;;;;4.43;1.60;;;;;;;18.26;66.76;99980.34;12216633;19;20007;-80
2023/06/28 03:34:03;;;;;;;9.93;1.85;;;;;;;18.27;67.08;99987.63;12214068;19;20010;-80
2023/06/28 03:38:05;;;;;;;4.68;1.95;;;;;;;18.28;66.95;99983.69;12191131;19;20027;-80
2023/06/28 03:42:07;;;;;;;6.63;2.08;;;;;;;18.28;67.18;99978.94;12214615;19;20006;-80
2023/06/28 03:46:09;;;;;;;5.22;2.10;;;;;;;18.27;66.96;99976.47;12213074;19;20006;-81
2023/06/28 03:50:11;;;;;;;2.70;1.70;;;;;;;18.28;66.61;99972.53;12194595;19;20461;-80
2023/06/28 03:54:13;;;;;;;8.00;2.87;;;;;;;18.26;67.06;99985.94;12215573;19;20020;-80
2023/06/28 03:58:16;;;;;;;5.18;2.10;;;;;;;18.22;67.41;99986.53;12217420;19;20027;-80
2023/06/28 04:02:20;;;;;;;7.85;2.13;;;;;;;18.24;67.87;99985.41;12190053;19;20066;-80
2023/06/28 04:06:21;;;;;;;4.25;2.08;;;;;;;18.24;67.50;99997.41;12215223;19;20007;-80
2023/06/28 04:10:25;;;;;;;4.82;1.75;;;;;;;18.25;67.81;99993.47;12212328;19;20011;-80
2023/06/28 04:14:28;;;;;;;4.63;2.10;;;;;;;18.26;67.87;99991.50;12186346;19;20690;-80
2023/06/28 04:18:30;;;;;;;4.72;2.03;;;;;;;18.24;67.76;99991.81;12211653;19;20006;-80
2023/06/28 04:22:32;;;;;;;3.80;1.75;;;;;;;18.23;67.66;99995.72;12215308;19;20656;-80
2023/06/28 04:26:34;;;;;;;3.90;2.07;;;;;;;18.22;67.57;99991.28;12191371;19;20014;-80
2023/06/28 04:30:38;;;;;;;5.70;1.90;;;;;;;18.23;68.43;99990.13;12213315;19;20007;-80
2023/06/28 04:34:40;;;;;;;2.53;1.58;;;;;;;18.29;69.12;99993.72;12210879;19;20035;-80
2023/06/28 04:38:42;;;;;;;4.75;2.05;;;;;;;18.33;69.21;99994.78;12192933;19;20014;-80
2023/06/28 04:42:43;;;;;;;4.10;1.80;;;;;;;18.33;69.51;100000.38;12214881;19;20222;-79
2023/06/28 04:46:47;;;;;;;4.68;1.88;;;;;;;18.35;68.86;99998.97;12213728;19;20014;-80
2023/06/28 04:50:51;;;;;;;4.50;2.10;;;;;;;18.38;69.23;100003.06;12188509;19;20014;-79
2023/06/28 04:54:54;;;;;;;8.18;1.73;;;;;;;18.39;68.87;100001.97;12209349;19;20010;-79
2023/06/28 04:58:58;;;;;;;7.22;2.28;;;;;;;18.42;68.84;99995.78;12186029;19;20259;-79
2023/06/28 05:03:00;;;;;;;4.45;1.88;;;;;;;18.49;68.80;99990.69;12205663;19;20018;-79
2023/06/28 05:07:07;;;;;;;5.20;2.00;;;;;;;18.53;68.09;99994.56;12208246;19;20003;-80
2023/06/28 05:11:09;;;;;;;5.20;2.00;;;;;;;18.48;67.67;100002.97;12188677;19;20826;-80
2023/06/28 05:15:14;;;;;;;6.28;1.80;;;;;;;18.53;68.12;99991.75;12215315;19;20378;-80
2023/06/28 05:19:18;;;;;;;5.75;2.05;;;;;;;18.61;68.46;99993.88;12215875;19;20018;-80
2023/06/28 05:23:24;;;;;;;15.70;2.95;;;;;;;18.66;68.48;99993.81;12185069;19;20350;-81
2023/06/28 05:27:26;;;;;;;17.05;2.70;;;;;;;18.72;69.33;100004.91;12224107;19;20023;-80
2023/06/28 05:31:29;;;;;;;5.95;2.00;;;;;;;18.73;68.14;99992.59;12225937;19;20051;-78
2023/06/28 05:35:35;;;;;;;14.90;3.63;;;;;;;18.79;68.42;100002.59;12200327;19;20027;-78
2023/06/28 05:39:38;;;;;;;6.20;2.25;;;;;;;18.85;67.33;99993.84;12225165;19;20335;-80
2023/06/28 05:43:43;;;;;;;8.13;2.40;;;;;;;18.95;67.17;99990.09;12220586;19;20098;-79
2023/06/28 05:47:51;;;;;;;4.38;1.70;;;;;;;19.03;66.49;99996.97;12197139;19;20843;-81
2023/06/28 05:51:54;;;;;;;5.05;1.85;;;;;;;19.10;65.43;99992.66;12226996;19;20006;-80
2023/06/28 05:55:56;;;;;;;8.13;2.43;;;;;;;19.15;65.23;100004.88;12207062;19;20476;-80
2023/06/28 05:59:57;;;;;;;4.60;1.88;;;;;;;19.21;65.05;99995.28;12230553;19;20017;-79
2023/06/28 06:04:00;;;;;;;6.18;1.92;;;;;;;19.25;65.14;100005.56;12222959;19;20020;-79
2023/06/28 06:08:04;;;;;;;9.32;2.40;;;;;;;19.28;65.93;100006.94;12205936;19;20757;-78
2023/06/28 06:12:07;;;;;;;3.97;1.65;;;;;;;19.29;65.58;100006.63;12226312;19;20084;-79
2023/06/28 06:16:10;;;;;;;5.45;2.05;;;;;;;19.41;65.04;99997.78;12225256;19;20007;-79
2023/06/28 06:20:16;;;;;;;6.68;2.00;;;;;;;19.53;64.48;100002.88;12202138;19;20111;-79
2023/06/28 06:24:21;;;;;;;5.35;1.80;;;;;;;19.64;64.28;99998.78;12220021;19;20021;-80
2023/06/28 06:28:28;;;;;;;4.55;1.80;;;;;;;19.78;63.17;100005.28;12224935;19;20078;-80
2023/06/28 06:32:32;;;;;;;8.05;2.03;;;;;;;19.91;62.99;100005.63;12202746;19;20014;-80
2023/06/28 06:36:37;;;;;;;9.60;3.05;;;;;;;20.01;63.40;100017.44;12223884;19;20061;-80
2023/06/28 06:40:40;;;;;;;5.00;1.73;;;;;;;20.13;62.51;100013.31;12222461;19;20017;-79
2023/06/28 06:44:43;;;;;;;9.85;2.13;;;;;;;20.25;62.48;100016.44;12196903;19;20014;-79
2023/06/28 06:48:47;;;;;;;7.47;2.20;;;;;;;20.30;62.35;100013.56;12223204;19;20302;-79
2023/06/28 06:52:50;;;;;;;11.85;3.20;;;;;;;20.38;61.61;100026.00;12205787;19;20023;-80
2023/06/28 06:56:52;;;;;;;8.20;2.30;;;;;;;20.52;60.88;100020.41;12222755;19;20010;-80
2023/06/28 07:00:55;;;;;;;6.30;1.95;;;;;;;20.59;60.46;100026.47;12220150;19;20373;-80
2023/06/28 07:04:59;;;;;;;7.35;2.30;;;;;;;20.62;60.52;100023.03;12196720;19;20009;-79
2023/06/28 07:09:04;;;;;;;8.60;2.33;;;;;;;20.66;60.99;100029.66;12219461;19;20027;-80
2023/06/28 07:13:07;;;;;;;12.05;2.30;;;;;;;20.55;61.30;100029.03;12218289;19;20512;-80
2023/06/28 07:17:09;;;;;;;4.57;1.90;;;;;;;20.57;60.91;100031.53;12198308;19;20370;-80
2023/06/28 07:21:14;;;;;;;6.03;2.00;;;;;;;20.72;60.75;100014.41;12220912;19;20014;-79
2023/06/28 07:25:16;;;;;;;7.30;3.20;;;;;;;20.96;60.00;100018.94;12218413;19;20011;-79
2023/06/28 07:29:19;;;;;;;5.20;1.88;;;;;;;20.96;59.84;100018.94;12195472;19;20015;-80
2023/06/28 07:33:23;;;;;;;7.10;2.45;;;;;;;21.08;59.06;100016.41;12215646;19;20009;-80
2023/06/28 07:37:27;;;;;;;6.72;2.25;;;;;;;21.18;58.62;100024.63;12217557;19;20024;-80
2023/06/28 07:41:29;;;;;;;13.73;2.80;;;;;;;;;;12196528;19;20062;-80
2023/06/28 07:45:33;;;;;;;11.48;2.28;;;;;;;20.99;58.47;100029.53;12225218;19;20010;-80
2023/06/28 07:49:38;;;;;;;5.35;1.85;;;;;;;20.81;59.25;100023.72;12224651;19;20021;-80
2023/06/28 07:53:43;;;;;;;6.10;1.88;;;;;;;20.75;59.95;100012.97;12186296;19;20010;-79
2023/06/28 07:57:45;;;;;;;6.20;2.30;;;;;;;20.88;59.37;100017.69;12216924;19;20002;-79
2023/06/28 08:01:50;;;;;;;8.15;2.22;;;;;;;21.04;58.39;100021.84;12193582;19;20021;-80
2023/06/28 08:05:51;;;;;;;5.13;2.00;;;;;;;21.32;58.22;100011.34;12215319;19;20013;-79
2023/06/28 08:09:53;;;;;;;7.07;2.13;;;;;;;21.55;56.96;100023.47;12215680;19;20010;-79
2023/06/28 08:13:57;;;;;;;4.32;1.83;;;;;;;21.60;56.05;100022.50;12190802;19;20010;-79
2023/06/28 08:17:59;;;;;;;5.68;2.15;;;;;;;21.76;55.80;100015.34;12215094;19;20014;-79
2023/06/28 08:22:03;;;;;;;5.50;2.13;;;;;;;21.95;55.07;100014.31;12214970;19;20063;-80
2023/06/28 08:26:05;;;;;;;5.50;2.13;;;;;;;22.03;54.95;100019.16;12191568;19;20017;-80
2023/06/28 08:30:08;;;;;;;6.83;2.13;;;;;;;21.97;54.81;100014.84;12213323;19;20002;-79
2023/06/28 08:34:11;;;;;;;3.63;2.13;;;;;;;22.11;53.90;100012.78;12214320;19;20018;-79
2023/06/28 08:38:15;;;;;;;6.18;2.13;;;;;;;22.26;53.96;100012.38;12194448;19;20420;-80
2023/06/28 08:42:18;;;;;;;5.87;2.30;;;;;;;22.38;53.86;100010.94;12214690;19;20014;-80
2023/06/28 08:46:26;;;;;;;5.80;1.92;;;;;;;22.53;53.10;100010.50;12214726;19;20023;-80
2023/06/28 08:50:34;;;;;;;5.72;2.10;;;;;;;22.70;51.91;100009.75;12193628;19;20026;-80
2023/06/28 08:54:37;;;;;;;4.85;2.10;;;;;;;22.90;51.61;100009.13;12212270;19;20488;-80
2023/06/28 08:58:47;;;;;;;5.63;1.92;;;;;;;23.02;51.38;100010.47;12213769;19;20019;-79
2023/06/28 09:13:30;;;;;;;7.22;2.45;;;;;;;22.64;51.07;100008.25;12110652;19;2004242;-80
2023/06/28 09:23:25;;;;;;;4.63;2.20;;;;;;;22.85;50.57;100014.91;12189114;19;20479;-81
2023/06/28 09:27:36;;;;;;;7.60;1.90;;;;;;;22.78;50.28;100017.34;12211320;19;20006;-80
2023/06/28 09:32:41;;;;;;;9.95;1.95;;;;;;;22.99;49.23;100009.16;12189240;19;20041;-80
2023/06/28 09:36:56;;;;;;;7.40;2.10;;;;;;;23.63;47.55;100008.53;12212071;19;20017;-81
2023/06/28 09:41:07;;;;;;;10.32;2.50;;;;;;;24.29;46.57;100002.59;12189133;19;20410;-80
2023/06/28 09:45:35;;;;;;;7.50;2.33;;;;;;;24.75;43.39;100006.56;12208062;19;20024;-81
2023/06/28 09:50:05;;;;;;;6.85;2.28;;;;;;;24.97;43.28;100005.41;12183682;19;20031;-81
2023/06/28 09:54:29;;;;;;;6.75;2.55;;;;;;;25.20;42.84;100003.13;12208210;19;20085;-80
2023/06/28 09:58:31;;;;;;;7.45;2.35;;;;;;;25.61;42.17;100009.91;12213391;19;20011;-80
2023/06/28 10:02:34;;;;;;;5.97;1.90;;;;;;;25.83;41.25;100003.09;12200196;19;20078;-80
2023/06/28 10:06:41;;;;;;;3.92;2.05;;;;;;;26.23;40.37;99994.00;12223006;19;20035;-82
2023/06/28 10:10:46;;;;;;;6.28;1.98;;;;;;;26.29;39.11;100001.06;12227435;19;20015;-82
2023/06/28 10:14:55;;;;;;;10.80;2.47;;;;;;;26.16;39.41;99996.59;12199782;19;20378;-81
2023/06/28 10:19:00;;;;;;;6.55;1.90;;;;;;;26.28;39.17;99996.59;12224226;19;20039;-81
2023/06/28 10:23:05;;;;;;;7.55;2.33;;;;;;;26.19;39.47;99991.06;12204853;19;20772;-81
2023/06/28 10:27:07;;;;;;;5.85;2.30;;;;;;;26.26;38.81;99993.31;12225357;19;20658;-81
2023/06/28 10:31:09;;;;;;;5.85;2.95;;;;;;;26.27;38.78;99998.63;12224981;19;20015;-81
2023/06/28 10:35:11;;;;;;;7.30;2.47;;;;;;;26.11;38.60;99991.97;12201383;19;20041;-81
2023/06/28 10:39:15;;;;;;;4.10;2.00;;;;;;;26.02;38.94;100005.38;12223167;19;20006;-80
2023/06/28 10:43:25;;;;;;;5.00;2.17;;;;;;;25.96;38.97;100001.94;12223215;19;20011;-81
2023/06/28 10:47:35;;;;;;;6.68;2.25;;;;;;;25.88;38.74;99995.25;12204739;19;20015;-81
2023/06/28 10:51:47;;;;;;;8.48;2.08;;;;;;;25.88;39.15;99995.25;12223147;19;20044;-80
2023/06/28 10:56:13;;;;;;;6.53;1.90;;;;;;;26.10;38.86;99990.34;12201463;19;20027;-81
2023/06/28 11:00:37;;;;;;;5.78;1.95;;;;;;;26.56;36.89;99993.94;12222022;19;20122;-80
2023/06/28 11:04:51;;;;;;;4.20;2.08;;;;;;;26.25;37.66;99981.19;12222583;19;20476;-82
2023/06/28 11:09:13;;;;;;;8.30;2.58;;;;;;;26.02;38.21;99988.44;12200628;19;20073;-79
2023/06/28 11:13:39;;;;;;;5.70;2.38;;;;;;;26.05;38.30;99974.44;12221527;19;20022;-81
2023/06/28 11:17:41;;;;;;;9.02;2.03;;;;;;;26.34;38.03;99970.59;12200354;19;20398;-81
2023/06/28 11:21:47;;;;;;;3.83;2.05;;;;;;;26.70;37.68;99985.94;12222310;19;20569;-80
2023/06/28 11:25:55;;;;;;;7.65;2.10;;;;;;;26.91;37.21;99979.31;12200403;19;20014;-81
2023/06/28 11:29:59;;;;;;;9.32;2.28;;;;;;;27.46;36.72;99984.28;12223529;19;20014;-81
2023/06/28 11:34:04;;;;;;;5.93;2.33;;;;;;;28.21;35.18;99982.72;12215791;19;20017;-81
2023/06/28 11:38:07;;;;;;;5.68;2.10;;;;;;;28.54;34.88;99975.91;12197418;19;20107;-80
2023/06/28 11:42:13;;;;;;;8.38;2.20;;;;;;;29.05;34.34;99971.06;12220978;19;20014;-81
2023/06/28 11:46:17;;;;;;;6.05;2.47;;;;;;;28.80;33.77;99973.28;12219978;19;20433;-80
2023/06/28 11:50:20;;;;;;;5.97;2.60;;;;;;;28.04;34.72;99968.91;12198961;19;20445;-81
2023/06/28 11:54:22;;;;;;;6.53;2.30;;;;;;;27.56;35.87;99970.78;12219429;19;20518;-81
2023/06/28 11:58:29;;;;;;;8.63;2.42;;;;;;;27.03;36.52;99976.47;12220457;19;20014;-80
2023/06/28 12:02:45;;;;;;;8.70;2.67;;;;;;;27.26;36.41;99966.31;12200059;19;20090;-81
2023/06/28 12:06:48;;;;;;;7.13;2.28;;;;;;;28.35;35.60;99956.78;12218575;19;20006;-81
2023/06/28 12:10:51;;;;;;;7.68;2.25;;;;;;;29.17;33.63;99952.25;12198734;19;20464;-80
2023/06/28 12:14:56;;;;;;;6.03;2.20;;;;;;;28.93;33.53;99959.81;12216377;19;20034;-80
2023/06/28 12:19:03;;;;;;;6.20;2.10;;;;;;;28.26;34.73;99965.47;12216809;19;20014;-81
2023/06/28 12:23:12;;;;;;;7.97;2.47;;;;;;;29.10;33.69;99952.13;12193589;19;20414;-81
2023/06/28 12:27:16;;;;;;;4.78;2.05;;;;;;;29.15;33.27;99954.63;12215826;19;20015;-81
2023/06/28 12:31:20;;;;;;;8.00;2.25;;;;;;;29.93;33.13;99944.91;12217325;19;20007;-81
2023/06/28 12:35:25;;;;;;;5.63;1.95;;;;;;;30.04;32.26;99941.44;12197062;19;20006;-82
2023/06/28 12:39:32;;;;;;;4.68;2.05;;;;;;;29.30;33.16;99942.44;12217307;19;20015;-81
2023/06/28 12:43:35;;;;;;;4.55;2.45;;;;;;;28.56;34.06;99937.50;12219796;19;20010;-82
2023/06/28 12:47:38;;;;;;;5.45;1.90;;;;;;;28.04;34.46;99937.75;12202317;19;20016;-81
2023/06/28 12:51:40;;;;;;;6.72;2.65;;;;;;;27.79;35.01;99940.75;12224270;19;20479;-82
2023/06/28 12:55:43;;;;;;;6.82;2.13;;;;;;;28.03;34.67;99936.13;12218071;19;20013;-81
2023/06/28 12:59:46;;;;;;;4.45;2.20;;;;;;;28.36;33.94;99935.75;12199428;19;20022;-81
2023/06/28 13:03:54;;;;;;;5.28;2.15;;;;;;;27.80;34.57;99933.88;12217312;19;20081;-81
2023/06/28 13:07:57;;;;;;;4.80;2.30;;;;;;;27.44;35.71;99932.88;12195474;19;20018;-81
2023/06/28 13:11:59;;;;;;;7.15;2.28;;;;;;;28.66;34.60;99923.94;12216000;19;20022;-81
2023/06/28 13:16:00;;;;;;;5.55;2.38;;;;;;;28.81;34.51;99929.56;12220812;19;20075;-81
2023/06/28 13:20:06;;;;;;;4.20;2.30;;;;;;;28.50;34.15;99919.13;12194222;19;20011;-82
2023/06/28 13:24:10;;;;;;;7.32;2.03;;;;;;;28.29;34.78;99915.72;12216709;19;20485;-82
2023/06/28 13:28:12;;;;;;;4.35;2.22;;;;;;;27.65;35.25;99921.31;12217096;19;20007;-81
2023/06/28 13:32:15;;;;;;;5.75;2.40;;;;;;;27.38;35.36;99919.34;12195726;19;20069;-81
2023/06/28 13:36:21;;;;;;;8.23;2.05;;;;;;;27.53;35.56;99914.91;12220267;19;20023;-80
2023/06/28 13:40:24;;;;;;;5.63;2.22;;;;;;;27.40;35.63;99912.16;12230488;19;20010;-80
2023/06/28 13:44:25;;;;;;;7.78;2.08;;;;;;;27.49;35.98;99909.16;12202857;19;20007;-80
2023/06/28 13:48:29;;;;;;;5.38;2.35;;;;;;;27.69;35.13;99901.59;12229693;19;20006;-81
2023/06/28 13:52:32;;;;;;;5.07;1.85;;;;;;;28.46;35.00;99901.19;12225789;19;20637;-82
2023/06/28 13:56:34;;;;;;;3.65;1.70;;;;;;;29.71;32.90;99892.56;12207530;19;20425;-81
2023/06/28 14:00:37;;;;;;;4.03;1.90;;;;;;;32.27;30.00;99892.81;12224015;19;20007;-80
2023/06/28 14:04:41;;;;;;;5.82;2.28;;;;;;;34.62;26.81;99886.31;12220888;19;20025;-82
2023/06/28 14:08:45;;;;;;;4.15;2.30;;;;;;;36.32;24.74;99887.09;12209829;19;20467;-82
2023/06/28 14:12:47;;;;;;;5.07;2.00;;;;;;;36.17;24.90;99881.53;12216003;19;20011;-79
2023/06/28 14:16:50;;;;;;;4.63;2.30;;;;;;;37.27;23.85;99883.66;12204612;19;20014;-80
2023/06/28 14:20:52;;;;;;;7.03;2.42;;;;;;;37.58;22.20;99876.69;12223499;19;20064;-81
2023/06/28 14:24:54;;;;;;;4.18;1.90;;;;;;;37.83;22.72;99875.47;12221608;19;20449;-82
2023/06/28 14:28:56;;;;;;;5.13;2.10;;;;;;;39.10;21.23;99865.00;12207273;19;20590;-79
2023/06/28 14:32:59;;;;;;;8.43;2.05;;;;;;;40.38;20.15;99874.84;12226076;19;20034;-83
2023/06/28 14:37:03;;;;;;;4.85;2.33;;;;;;;40.83;19.17;99862.47;12228695;19;20018;-82
2023/06/28 14:41:05;;;;;;;3.13;1.80;;;;;;;41.10;19.13;99853.47;12210418;19;20037;-82
2023/06/28 14:45:11;;;;;;;4.45;2.08;;;;;;;41.14;19.25;99850.44;12224573;19;20021;-82
2023/06/28 14:49:14;;;;;;;3.35;1.70;;;;;;;41.13;18.72;99849.66;12233023;19;20066;-82
2023/06/28 14:53:16;;;;;;;2.58;1.50;;;;;;;41.52;18.39;99844.75;12204368;19;20010;-79
2023/06/28 14:57:21;;;;;;;3.83;1.83;;;;;;;40.93;18.46;99843.19;12223758;19;20078;-84
2023/06/28 15:01:23;;;;;;;4.80;2.00;;;;;;;38.17;20.89;99848.69;12232547;19;20009;-83
2023/06/28 15:05:27;;;;;;;3.40;1.90;;;;;;;35.28;23.97;99847.66;12208344;19;20471;-81
2023/06/28 15:09:29;;;;;;;4.13;2.17;;;;;;;32.89;25.41;99847.19;12226976;19;20014;-81
2023/06/28 15:13:31;;;;;;;6.10;2.28;;;;;;;33.15;25.83;99844.47;12229611;19;20006;-81
2023/06/28 15:17:34;;;;;;;4.53;2.80;;;;;;;34.26;24.73;99852.00;12205521;19;20074;-83
2023/06/28 15:21:37;;;;;;;6.53;2.33;;;;;;;32.83;26.57;99850.81;12240799;19;20010;-81
2023/06/28 15:25:40;;;;;;;7.30;2.17;;;;;;;31.08;28.15;99847.19;12256645;19;20014;-78
2023/06/28 15:29:42;;;;;;;4.43;2.60;;;;;;;29.75;30.46;99844.38;12232316;19;20025;-80
2023/06/28 15:33:44;;;;;;;;;;;;;;;28.80;30.87;99839.19;12235968;19;20089;-82
2023/06/28 15:37:47;;;;;;;5.53;2.00;;;;;;;28.60;32.33;99841.19;12209864;19;19914;-80
2023/06/28 15:41:49;;;;;;;2.58;1.73;;;;;;;28.55;32.21;99842.28;12218612;19;20025;-80
2023/06/28 15:45:51;;;;;;;4.38;2.40;;;;;;;28.32;32.94;99835.66;12215729;19;20346;-80
2023/06/28 15:49:53;;;;;;;6.20;2.38;;;;;;;28.15;33.33;99834.84;12196523;19;20354;-80
2023/06/28 15:53:55;;;;;;;;;;;;;;;27.91;33.22;99832.25;12219821;19;20409;-81
2023/06/28 15:57:58;;;;;;;6.40;1.85;;;;;;;27.83;33.30;99833.25;12216275;19;19915;-81
2023/06/28 16:02:00;;;;;;;3.22;1.70;;;;;;;27.41;34.86;99833.72;12194764;19;20017;-79
2023/06/28 16:06:02;;;;;;;3.13;2.05;;;;;;;27.12;35.16;99834.91;12216602;19;20018;-81
2023/06/28 16:10:04;;;;;;;5.68;2.00;;;;;;;26.95;34.79;99833.22;12221783;19;20007;-81
2023/06/28 16:14:08;;;;;;;5.95;2.05;;;;;;;26.88;35.42;99827.34;12197301;19;20040;-81
2023/06/28 16:18:10;;;;;;;3.22;2.10;;;;;;;26.98;35.48;99822.03;12218068;19;20439;-81
2023/06/28 16:22:12;;;;;;;;;;;;;;;27.02;36.33;99811.63;12217306;19;20118;-81
2023/06/28 16:26:14;;;;;;;6.50;2.20;;;;;;;26.88;36.54;99824.53;12193560;19;19947;-81
2023/06/28 16:30:18;;;;;;;4.82;1.92;;;;;;;26.61;36.70;99812.84;12217357;19;20017;-82
2023/06/28 16:34:19;;;;;;;3.42;1.92;;;;;;;26.44;37.11;99811.06;12219123;19;20013;-81
2023/06/28 16:38:23;;;;;;;3.42;2.15;;;;;;;26.22;37.14;99806.78;12193314;19;20015;-82
2023/06/28 16:42:25;;;;;;;4.82;1.67;;;;;;;26.07;37.78;99813.16;12213286;19;20338;-82
2023/06/28 16:46:27;;;;;;;4.25;2.03;;;;;;;25.89;38.03;99809.75;12216030;19;20039;-80
2023/06/28 16:50:32;;;;;;;4.72;1.92;;;;;;;25.81;38.30;99817.09;12194355;19;20026;-82
2023/06/28 16:54:34;;;;;;;6.07;2.00;;;;;;;25.92;38.49;99817.50;12215689;19;20027;-81
2023/06/28 16:58:36;;;;;;;4.10;2.00;;;;;;;25.90;38.36;99812.19;12217636;19;20011;-82
2023/06/28 17:02:38;;;;;;;4.18;1.92;;;;;;;25.75;38.31;99812.06;12191978;19;20356;-81
2023/06/28 17:06:41;;;;;;;5.93;1.88;;;;;;;25.66;38.76;99810.16;12211971;19;20097;-82
2023/06/28 17:10:45;;;;;;;7.82;1.92;;;;;;;25.82;38.50;99815.13;12216112;19;20346;-81
2023/06/28 17:14:47;;;;;;;6.03;1.92;;;;;;;25.75;38.93;99817.69;12191240;19;20590;-81
2023/06/28 17:18:49;;;;;;;3.85;1.80;;;;;;;25.81;38.71;99817.09;12216048;19;20007;-82
2023/06/28 17:22:54;;;;;;;3.58;1.80;;;;;;;25.96;39.25;99824.09;12191509;19;20006;-82
2023/06/28 17:26:56;;;;;;;3.42;1.90;;;;;;;25.91;39.35;99827.97;12214432;19;20020;-80
2023/06/28 17:30:59;;;;;;;4.38;1.85;;;;;;;25.86;39.52;99830.22;12232015;19;20007;-81
2023/06/28 17:35:04;;;;;;;4.90;2.17;;;;;;;25.75;40.04;99826.97;12195524;19;20038;-80
2023/06/28 17:39:08;;;;;;;3.50;1.80;;;;;;;25.70;40.00;99824.41;12211711;19;20034;-80
2023/06/28 17:43:11;;;;;;;4.03;1.73;;;;;;;25.55;40.77;99833.53;12210912;19;20017;-81
2023/06/28 17:47:13;;;;;;;4.03;1.92;;;;;;;25.36;40.59;99820.81;12192153;19;20003;-80
2023/06/28 17:51:18;;;;;;;5.40;1.75;;;;;;;25.33;41.17;99826.34;12214761;19;20015;-84
2023/06/28 17:55:20;;;;;;;3.17;1.67;;;;;;;25.28;41.39;99830.19;12213634;19;20007;-81
2023/06/28 17:59:25;;;;;;;3.15;1.50;;;;;;;25.18;41.44;99839.09;12192302;19;20031;-80
2023/06/28 18:03:27;;;;;;;2.50;1.67;;;;;;;25.12;41.45;99827.19;12218281;19;20471;-81
2023/06/28 18:07:32;;;;;;;2.17;1.52;;;;;;;24.89;41.93;99829.53;12213694;19;20402;-80
2023/06/28 18:11:36;;;;;;;3.78;1.85;;;;;;;24.68;42.72;99823.94;12195306;19;20017;-81
2023/06/28 18:15:38;;;;;;;;;;;;;;;24.52;42.75;99837.81;12216757;19;20007;-81
2023/06/28 18:19:42;;;;;;;6.53;1.65;;;;;;;24.43;43.08;99833.41;12216613;19;19939;-81
2023/06/28 18:23:44;;;;;;;4.43;2.00;;;;;;;24.29;44.40;99833.63;12201496;19;20027;-81
2023/06/28 18:27:46;;;;;;;4.00;2.00;;;;;;;24.21;44.32;99837.31;12227125;19;20118;-81
2023/06/28 18:31:49;;;;;;;3.88;1.90;;;;;;;24.15;43.79;99838.69;12202936;19;20014;-80
2023/06/28 18:35:52;;;;;;;3.72;1.73;;;;;;;24.09;43.95;99838.06;12227519;19;20026;-80
2023/06/28 18:39:54;;;;;;;4.28;1.88;;;;;;;23.99;44.22;99833.66;12227164;19;20007;-81
2023/06/28 18:43:59;;;;;;;4.68;1.85;;;;;;;23.90;44.63;99838.50;12211234;19;20338;-81
2023/06/28 18:48:04;;;;;;;3.78;1.55;;;;;;;23.84;45.02;99842.66;12232387;19;20010;-80
2023/06/28 18:52:08;;;;;;;3.17;2.00;;;;;;;23.76;45.81;99841.53;12239123;19;20015;-81
2023/06/28 18:56:10;;;;;;;6.53;1.80;;;;;;;23.77;45.62;99839.56;12199332;19;20014;-81
2023/06/28 19:00:14;;;;;;;6.00;1.87;;;;;;;23.78;45.85;99833.59;12223903;19;20046;-80
2023/06/28 19:04:15;;;;;;;5.57;1.60;;;;;;;23.76;46.97;99833.09;12224495;19;20015;-81
2023/06/28 19:08:19;;;;;;;5.72;1.95;;;;;;;23.73;46.37;99827.31;12199156;19;20041;-80
2023/06/28 19:12:20;;;;;;;5.20;2.10;;;;;;;23.71;46.66;99832.44;12220732;19;20380;-81